Terminal Aerodrome Forecast
Issued by NWS Sioux Falls, SD

Home | Current Version | Previous Version | Text Only | Print | Product List | Glossary Off
Versions: 1 2 3 4 5 6 7 8 9 10 11 12 13 14 15 16 17

000
FTUS43 KFSD 251120
TAFHON
TAF
KHON 251120Z 2512/2612 02004KT P6SM SCT020 BKN080
     FM251500 01007KT 4SM -SN BR OVC015
     FM252100 36015KT 5SM -SN BR OVC010
     FM260400 35012KT P6SM OVC011=

USA.gov is the U.S. government's official web portal to all federal, state and local government web resources and services.